Col Jabara, KS

7:24 AM CDT on August 30, 2015 (GMT -0500)
Col Jabara | | Change Station
CLOSE
Current Station
Airport
Location: Wichita Jabara,
Elevation: 1421 ft
Nearby Weather Stations

Elev 1421 ft 37.75 °N, 97.22 °W | Updated 30 minutes ago

Fog
Fog
61 °F
Feels Like 61 °F
N
4
Wind Variable Wind from NNE

Today
High -- | Low -- °F
--% Chance of Precip.
Yesterday
High -- | Low -- °F
Precip. -- in
6:57 AM 8:01 PM
Full, 99% visible
Pressure 30.00 in
Visibility 0.2 miles
Clouds
Dew Point 61 °F
Humidity 100%
Rainfall 0.00 in
Snow Depth Not available.
UV Not available.
Pollen 10.60 out of 12
Air Quality Not available.
Flu Activity Not available.
METAR KAAO 301154Z AUTO 02003KT 1/4SM FG VV002 16/16 A3002 RMK AO2 SLP159 T01610161 10161 20144 53000
Pressure 30.00 in
Visibility 0.2 miles
Clouds
Dew Point 61 °F
Humidity 100%
Rainfall 0.00 in
Snow Depth Not available.
UV Not available.
Pollen 10.60 out of 12
Air Quality Not available.
Flu Activity Not available.
METAR KAAO 301154Z AUTO 02003KT 1/4SM FG VV002 16/16 A3002 RMK AO2 SLP159 T01610161 10161 20144 53000

10-Day Weather Forecast

×

Almanac

Astronomy

Aug. 30, 2015 Rise Set
Actual Time
Civil Twilight
Nautical Twilight
Astronomical Twilight
Moon
Length of Visible Light
Length of Day
Tomorrow will be .
, % of the Moon is Illuminated

Today's Extremes

State Highs State Lows

Community

WunderPhotos

Upload Photos

1,850,936 photos uploaded!

WunderBlogs® & News

Nearby

Air Quality

  Air Quality AQ Index Pollutant
Not available.

Snow Depth

Station Depth Elevation

Earthquake Activity

City Distance Mag. Time & Date
Minimum magnitude displayed is 2.5.

Coastal Water Temperatures

Place Temperature

Stations

Nearby Weather Stations

Station Location Temp. Windchill Dew Point Humidity Wind Precip. Elev Updated Type
                   
Dense Fog Advisory
Statement as of 7:21 AM CDT on August 30, 2015

... Dense fog advisory remains in effect until 10 am CDT this
morning...

* timing... dense fog will affect the entire area this
morning... with conditions expected to improve after 10 am.

* Impacts... visibilities of less than one quarter mile are
likely.

Precautionary/preparedness actions...

A dense fog advisory means visibilities will frequently be
reduced to less than one quarter mile. If driving... slow down.
Use your headlights and leave plenty of distance ahead of you.



Jakub